Time;durP1;ratioP1;P1;durP2;ratioP2;P2;SDS_P1;SDS_P2;PMS_P1;PMS_P2;Temp;Humidity;BMP_temperature;BMP_pressure;BME280_temperature;BME280_humidity;BME280_pressure;Samples;Min_cycle;Max_cycle;Signal;HPM_P1;HPM_P2
2021/09/13 00:02:00;;;;;;;9.60;8.63;;;14.40;99.90;;;14.78;68.83;94339.53;5006870;28;20543;-74
2021/09/13 00:04:28;;;;;;;10.20;9.20;;;14.00;99.90;;;14.74;68.92;94339.28;5008928;28;20224;-75
2021/09/13 00:06:57;;;;;;;10.37;9.27;;;13.20;99.90;;;14.68;69.02;94334.28;4990031;28;20224;-74
2021/09/13 00:09:23;;;;;;;10.47;9.47;;;13.10;99.90;;;14.68;69.08;94337.75;4984070;28;20213;-74
2021/09/13 00:11:51;;;;;;;10.47;9.50;;;13.00;99.90;;;14.68;69.10;94345.75;4980357;28;20891;-74
2021/09/13 00:14:18;;;;;;;9.73;8.80;;;;;;;14.71;69.20;94339.06;4995046;28;20563;-74
2021/09/13 00:16:44;;;;;;;13.03;11.63;;;;;;;14.73;69.13;94332.38;5007982;28;20552;-74
2021/09/13 00:19:12;;;;;;;12.93;11.43;;;14.40;99.90;;;14.77;69.27;94325.38;4980379;28;20220;-74
2021/09/13 00:21:38;;;;;;;11.00;9.30;;;13.80;99.90;;;14.77;69.27;94329.97;4995523;28;20647;-74
2021/09/13 00:24:05;;;;;;;11.27;10.00;;;14.70;99.90;;;14.85;69.54;94330.13;5011465;28;20220;-74
2021/09/13 00:26:33;;;;;;;10.50;9.47;;;14.60;99.90;;;14.79;69.45;94327.78;5011702;28;20318;-73
2021/09/13 00:28:59;;;;;;;8.83;8.13;;;13.70;99.90;;;14.84;69.81;94327.75;4978176;28;20193;-75
2021/09/13 00:31:29;;;;;;;10.73;8.70;;;14.50;99.90;;;14.80;69.68;94326.72;4979938;28;20897;-74
2021/09/13 00:33:58;;;;;;;9.07;8.27;;;14.40;99.90;;;14.72;69.61;94320.09;5010646;28;20676;-75
2021/09/13 00:36:26;;;;;;;9.50;8.60;;;14.50;99.90;;;14.71;69.83;94326.50;4994115;28;20652;-74
2021/09/13 00:38:54;;;;;;;10.33;9.30;;;14.30;99.90;;;14.75;69.77;94329.41;4991415;28;20547;-72
2021/09/13 00:41:20;;;;;;;9.77;8.80;;;14.70;99.90;;;14.77;69.70;94325.38;4969980;28;20283;-72
2021/09/13 00:43:46;;;;;;;9.90;8.67;;;;;;;14.76;69.77;94325.69;4978388;28;20267;-73
2021/09/13 00:46:12;;;;;;;10.63;9.53;;;14.20;99.90;;;14.75;69.71;94324.09;4964559;28;20222;-73
2021/09/13 00:48:38;;;;;;;9.80;8.90;;;14.20;99.90;;;14.75;69.98;94321.41;4977225;28;20201;-72
2021/09/13 00:51:04;;;;;;;10.53;9.53;;;14.00;99.90;;;14.66;70.16;94312.44;4989320;28;20210;-72
2021/09/13 00:53:31;;;;;;;10.77;9.77;;;13.60;99.90;;;14.58;70.38;94315.69;4975246;28;20341;-72
2021/09/13 00:56:03;;;;;;;14.37;11.10;;;13.60;99.90;;;14.59;70.01;94319.94;4977638;28;20288;-72
2021/09/13 00:58:29;;;;;;;9.77;8.77;;;12.60;99.90;;;14.60;70.22;94313.53;5013171;28;21896;-72
2021/09/13 01:00:56;;;;;;;10.43;9.27;;;;;;;14.63;70.53;94318.31;4990426;28;22217;-72
2021/09/13 01:03:24;;;;;;;11.87;10.77;;;14.40;99.90;;;14.65;70.42;94313.50;4975691;28;20623;-73
2021/09/13 01:05:51;;;;;;;11.73;10.60;;;13.80;99.90;;;14.58;70.45;94308.47;4975647;28;20249;-72
2021/09/13 01:08:17;;;;;;;11.33;10.20;;;14.40;99.90;;;14.57;70.36;94308.78;4972228;28;20208;-73
2021/09/13 01:10:43;;;;;;;10.80;9.90;;;14.00;99.90;;;14.56;70.71;94315.16;5008894;28;20208;-73
2021/09/13 01:13:11;;;;;;;10.97;9.80;;;14.40;99.90;;;14.53;70.72;94321.06;4995381;28;20551;-73
2021/09/13 01:15:45;;;;;;;11.00;10.00;;;13.80;99.90;;;14.49;70.98;94320.81;4961719;28;20205;-72
2021/09/13 01:18:11;;;;;;;10.00;9.03;;;14.20;99.90;;;14.51;70.56;94323.19;5012519;28;20224;-72
2021/09/13 01:20:42;;;;;;;11.13;10.00;;;14.40;99.90;;;14.50;70.81;94316.28;4977210;28;21031;-72
2021/09/13 01:23:31;;;;;;;10.20;8.97;;;14.20;99.90;;;14.47;70.87;94314.94;4976088;28;20288;-73
2021/09/13 01:25:57;;;;;;;10.93;9.83;;;14.40;99.90;;;14.33;71.02;94314.81;4995339;28;20270;-72
2021/09/13 01:28:23;;;;;;;10.27;9.33;;;13.40;99.90;;;14.28;70.79;94311.34;4982066;28;20264;-73
2021/09/13 01:30:50;;;;;;;10.27;9.37;;;14.50;99.90;;;14.28;71.28;94325.47;4980229;28;20200;-73
2021/09/13 01:33:17;;;;;;;11.87;9.90;;;;;;;14.25;70.89;94328.69;4992556;28;20581;-73
2021/09/13 01:35:43;;;;;;;9.90;8.90;;;13.10;99.90;;;14.23;71.17;94314.84;4983704;28;20209;-73
2021/09/13 01:38:09;;;;;;;9.60;8.70;;;13.10;99.90;;;14.22;71.25;94318.56;4990440;28;20266;-72
2021/09/13 01:40:35;;;;;;;10.00;8.80;;;;;;;14.20;71.30;94319.94;4992743;28;20200;-73
2021/09/13 01:43:03;;;;;;;10.20;9.30;;;12.70;99.90;;;14.17;71.15;94328.47;5006693;28;20727;-73
2021/09/13 01:45:29;;;;;;;9.63;8.70;;;13.80;99.90;;;14.16;71.10;94325.00;4988992;28;20229;-73
2021/09/13 01:47:56;;;;;;;10.07;9.07;;;12.90;99.90;;;14.05;71.08;94318.16;4992639;28;20193;-72
2021/09/13 01:50:22;;;;;;;9.83;8.90;;;14.20;99.90;;;14.05;71.21;94326.13;4993283;28;20263;-72
2021/09/13 01:52:48;;;;;;;9.77;8.87;;;;;;;14.03;71.53;94322.97;4973155;28;20209;-72
2021/09/13 01:55:15;;;;;;;10.40;8.50;;;12.40;99.90;;;14.02;71.62;94321.34;4993616;28;20613;-72
2021/09/13 01:57:43;;;;;;;9.27;8.43;;;12.90;99.90;;;14.07;71.54;94333.88;4988086;28;20201;-72
2021/09/13 02:00:10;;;;;;;10.23;9.20;;;13.50;99.90;;;14.00;71.60;94317.38;4973170;28;20227;-73
2021/09/13 02:02:36;;;;;;;9.67;8.77;;;;;;;14.03;71.80;94325.63;4993155;28;20619;-72
2021/09/13 02:05:02;;;;;;;10.50;9.50;;;13.00;99.90;;;13.98;71.84;94314.19;4976329;28;20235;-73
2021/09/13 02:07:28;;;;;;;11.63;10.50;;;12.90;99.90;;;13.91;71.50;94317.16;4992494;28;20193;-72
2021/09/13 02:09:54;;;;;;;12.47;10.27;;;12.70;99.90;;;13.88;71.46;94323.03;4989177;28;20270;-73
2021/09/13 02:12:21;;;;;;;11.90;10.70;;;13.90;99.90;;;13.95;72.07;94312.88;4989009;28;20193;-73
2021/09/13 02:14:47;;;;;;;11.97;9.90;;;13.70;99.90;;;13.95;71.94;94318.19;4990334;28;20664;-72
2021/09/13 02:17:14;;;;;;;12.83;9.23;;;13.60;99.90;;;13.93;72.00;94306.22;5004341;28;20228;-73
2021/09/13 02:19:41;;;;;;;11.17;10.07;;;13.00;99.90;;;13.86;71.87;94311.84;4991912;28;20340;-73
2021/09/13 02:22:09;;;;;;;11.60;10.47;;;12.70;99.90;;;13.84;72.14;94316.66;5000828;28;20288;-72
2021/09/13 02:24:35;;;;;;;10.60;9.50;;;12.90;99.90;;;13.78;72.25;94305.22;5006633;28;20218;-72
2021/09/13 02:27:00;;;;;;;10.37;9.30;;;12.70;99.90;;;13.74;72.23;94306.03;4992162;28;20203;-72
2021/09/13 02:29:29;;;;;;;9.37;8.47;;;13.30;99.90;;;13.74;72.19;94308.69;4990128;28;20224;-73
2021/09/13 02:31:57;;;;;;;10.50;9.50;;;13.90;99.90;;;13.70;72.02;94310.31;4972868;28;20268;-74
2021/09/13 02:34:26;;;;;;;9.67;8.63;;;12.70;99.90;;;13.71;72.29;94314.56;4976677;28;20207;-75
2021/09/13 02:36:51;;;;;;;12.03;10.10;;;12.90;99.90;;;13.58;72.63;94309.84;4995680;28;20547;-75
2021/09/13 02:39:17;;;;;;;11.03;10.03;;;12.30;99.90;;;13.51;72.29;94306.66;4994559;28;20207;-72
2021/09/13 02:41:46;;;;;;;11.43;10.00;;;12.70;99.90;;;13.55;72.68;94313.84;4975987;28;20254;-72
2021/09/13 02:44:19;;;;;;;9.37;8.43;;;12.40;99.90;;;13.53;72.30;94304.56;4983732;28;20233;-73
2021/09/13 02:46:45;;;;;;;11.77;10.67;;;12.40;99.90;;;13.50;72.41;94308.53;5008584;28;20193;-73
2021/09/13 02:49:12;;;;;;;12.23;11.03;;;12.70;99.90;;;13.50;72.67;94294.44;4985321;28;20204;-73
2021/09/13 02:51:38;;;;;;;10.53;9.50;;;12.50;99.90;;;13.54;72.63;94298.94;5008922;28;20343;-73
2021/09/13 02:54:04;;;;;;;12.80;11.53;;;12.10;99.90;;;13.48;72.64;94300.03;5011624;28;20705;-72
2021/09/13 02:56:32;;;;;;;11.73;10.60;;;13.40;99.90;;;13.41;72.36;94301.38;4961617;28;20211;-73
2021/09/13 02:58:58;;;;;;;11.27;10.10;;;12.20;99.90;;;13.36;72.62;94296.88;5016130;28;20205;-73
2021/09/13 03:01:24;;;;;;;11.23;10.13;;;12.40;99.90;;;13.34;72.78;94294.47;4992397;28;20209;-74
2021/09/13 03:03:50;;;;;;;13.07;9.93;;;;;;;13.33;72.74;94302.72;4974109;28;20200;-72
2021/09/13 03:06:16;;;;;;;11.03;9.90;;;12.20;99.90;;;13.30;72.77;94298.75;4977247;28;20209;-73
2021/09/13 03:08:42;;;;;;;10.27;9.23;;;12.20;99.90;;;13.30;72.95;94290.78;4992377;28;20206;-72
2021/09/13 03:11:08;;;;;;;12.20;11.00;;;12.40;99.90;;;13.21;72.95;94295.06;4967414;28;20213;-72
2021/09/13 03:13:34;;;;;;;12.40;10.30;;;12.70;99.90;;;13.20;72.79;94297.97;4993477;28;20659;-73
2021/09/13 03:16:00;;;;;;;14.67;10.77;;;12.30;99.90;;;13.22;73.18;94306.50;4974908;28;20211;-72
2021/09/13 03:18:30;;;;;;;10.97;9.90;;;12.30;99.90;;;13.25;73.13;94300.63;4973317;28;20656;-72
2021/09/13 03:20:56;;;;;;;10.87;9.80;;;12.10;99.90;;;13.19;73.09;94285.75;5027203;28;20246;-74
2021/09/13 03:23:26;;;;;;;11.60;10.40;;;11.80;99.90;;;13.11;73.23;94288.97;4991735;28;20263;-73
2021/09/13 03:25:52;;;;;;;13.87;9.57;;;13.10;99.90;;;13.07;73.26;94294.00;5005165;28;20228;-74
2021/09/13 03:28:18;;;;;;;10.90;9.50;;;12.00;99.90;;;13.04;73.25;94289.22;5007814;28;20202;-73
2021/09/13 03:30:44;;;;;;;11.67;9.53;;;;;;;13.02;72.97;94294.03;4992620;28;20234;-72
2021/09/13 03:33:10;;;;;;;9.80;8.80;;;11.90;99.90;;;13.02;73.13;94293.22;4991855;28;20574;-73
2021/09/13 03:35:36;;;;;;;10.90;9.80;;;12.20;99.90;;;12.98;73.34;94302.81;4995836;28;20204;-72
2021/09/13 03:38:02;;;;;;;9.47;8.60;;;11.60;99.90;;;13.00;73.61;94296.13;4963878;28;20196;-72
2021/09/13 03:40:28;;;;;;;10.80;9.70;;;12.30;99.90;;;13.02;73.32;94301.19;5002135;28;20199;-72
2021/09/13 03:42:56;;;;;;;11.43;10.43;;;11.70;99.90;;;13.05;73.31;94300.66;5008120;28;20195;-73
2021/09/13 03:45:24;;;;;;;11.03;9.90;;;11.20;99.90;;;13.08;73.80;94298.25;4992709;28;20683;-74
2021/09/13 03:47:49;;;;;;;10.00;9.00;;;12.60;99.90;;;13.10;73.36;94298.00;5002925;28;20663;-73
2021/09/13 03:50:20;;;;;;;9.70;8.70;;;12.00;99.90;;;13.05;73.88;94292.69;5006452;28;20291;-73
2021/09/13 03:52:46;;;;;;;12.53;9.77;;;12.00;99.90;;;12.95;73.48;94298.03;4991825;28;20662;-75
2021/09/13 03:55:14;;;;;;;10.87;9.37;;;11.90;99.90;;;13.00;73.34;94303.31;4977148;28;20213;-75
2021/09/13 03:57:40;;;;;;;11.80;10.53;;;11.90;99.90;;;12.92;73.96;94287.91;4997305;28;20198;-75
2021/09/13 04:00:07;;;;;;;14.47;12.07;;;11.90;99.90;;;12.97;73.54;94301.19;4996121;28;20207;-75
2021/09/13 04:02:33;;;;;;;13.87;11.90;;;12.00;99.90;;;12.95;73.80;94290.03;4979098;28;20289;-74
2021/09/13 04:04:59;;;;;;;12.80;11.23;;;12.00;99.90;;;12.90;73.71;94290.84;4993769;28;20285;-74
2021/09/13 04:07:30;;;;;;;12.23;10.10;;;11.70;99.90;;;12.89;74.07;94286.59;4973463;28;20192;-73
2021/09/13 04:10:19;;;;;;;13.40;10.53;;;11.80;99.90;;;12.85;74.03;94288.19;4993710;28;20276;-75
2021/09/13 04:12:44;;;;;;;11.17;10.07;;;11.90;99.90;;;12.84;74.18;94295.38;5016920;28;20639;-74
2021/09/13 04:15:10;;;;;;;12.97;11.50;;;11.70;99.90;;;12.79;74.12;94295.38;4980452;28;20293;-74
2021/09/13 04:17:38;;;;;;;15.70;10.73;;;11.50;99.90;;;12.76;73.86;94301.22;5010846;28;20205;-74
2021/09/13 04:20:07;;;;;;;13.13;11.73;;;12.20;99.90;;;12.77;73.76;94302.84;5013484;28;20275;-74
2021/09/13 04:22:33;;;;;;;12.47;11.23;;;11.80;99.90;;;12.83;74.04;94300.94;4990949;28;20197;-74
2021/09/13 04:25:00;;;;;;;12.23;9.93;;;11.80;99.90;;;12.76;74.48;94298.56;4984802;28;20289;-74
2021/09/13 04:27:32;;;;;;;12.77;10.40;;;11.80;99.90;;;12.75;74.68;94307.63;4975272;28;20223;-74
2021/09/13 04:30:02;;;;;;;11.13;9.87;;;11.60;99.90;;;12.75;73.98;94302.31;4960751;28;20357;-74
2021/09/13 04:32:28;;;;;;;13.40;12.00;;;11.70;99.90;;;12.71;74.47;94297.78;4982819;28;20646;-74
2021/09/13 04:34:56;;;;;;;15.73;11.57;;;11.70;99.90;;;12.76;74.01;94295.09;4994164;28;20197;-74
2021/09/13 04:37:24;;;;;;;12.77;11.33;;;11.90;99.90;;;12.72;74.19;94294.88;5008309;28;20217;-74
2021/09/13 04:39:52;;;;;;;12.70;11.07;;;11.60;99.90;;;12.68;74.48;94282.38;5021711;28;20210;-74
2021/09/13 04:42:18;;;;;;;12.83;10.43;;;12.40;99.90;;;12.66;74.38;94282.63;5008598;28;20286;-74
2021/09/13 04:44:43;;;;;;;12.73;11.43;;;11.70;99.90;;;12.63;74.49;94293.78;5007401;28;20313;-74
2021/09/13 04:47:09;;;;;;;12.50;11.20;;;11.30;99.90;;;12.61;74.37;94289.81;5011577;28;20203;-75
2021/09/13 04:49:35;;;;;;;11.17;10.00;;;11.40;99.90;;;12.63;74.61;94293.00;4991697;28;20200;-75
2021/09/13 04:52:01;;;;;;;14.03;12.43;;;11.30;99.90;;;12.55;74.16;94291.69;5001385;28;20621;-74
2021/09/13 04:54:27;;;;;;;15.93;11.80;;;11.60;99.90;;;12.59;74.77;94297.28;5009725;28;20641;-74
2021/09/13 04:56:53;;;;;;;13.40;10.87;;;11.60;99.90;;;12.54;74.50;94291.94;5012114;28;20200;-74
2021/09/13 04:59:18;;;;;;;11.20;9.93;;;11.20;99.90;;;12.51;74.49;94300.44;4975290;28;21485;-74
2021/09/13 05:01:46;;;;;;;14.47;10.90;;;11.50;99.90;;;12.54;74.66;94305.22;4976447;28;20618;-74
2021/09/13 05:04:12;;;;;;;12.07;10.83;;;11.70;99.90;;;12.51;74.63;94295.94;4975517;28;20221;-74
2021/09/13 05:06:39;;;;;;;13.30;11.10;;;11.10;99.90;;;12.47;74.87;94302.84;5011206;28;20280;-74
2021/09/13 05:09:05;;;;;;;13.30;10.37;;;11.50;99.90;;;12.50;74.62;94296.19;4978882;28;20240;-74
2021/09/13 05:11:37;;;;;;;12.80;10.37;;;11.60;99.90;;;12.51;74.67;94300.44;4996698;28;20184;-74
2021/09/13 05:14:03;;;;;;;11.93;9.63;;;11.40;99.90;;;12.51;75.06;94303.09;5013079;28;20210;-72
2021/09/13 05:16:31;;;;;;;10.63;9.53;;;11.30;99.90;;;12.52;74.75;94307.38;4999875;28;20195;-73
2021/09/13 05:19:00;;;;;;;14.00;11.40;;;11.30;99.90;;;12.49;75.28;94313.22;5008822;28;20181;-74
2021/09/13 05:21:26;;;;;;;15.10;12.50;;;;;;;12.51;75.05;94319.06;4992580;28;20677;-74
2021/09/13 05:23:52;;;;;;;14.87;12.50;;;11.50;99.90;;;12.51;75.06;94305.78;4994896;28;20284;-75
2021/09/13 05:26:20;;;;;;;18.83;14.27;;;11.50;99.90;;;12.61;74.95;94319.88;4992423;28;20246;-74
2021/09/13 05:28:46;;;;;;;15.93;11.93;;;11.60;99.90;;;12.69;75.12;94310.56;4991592;28;20208;-73
2021/09/13 05:31:11;;;;;;;13.37;11.90;;;11.60;99.90;;;12.70;75.18;94320.13;5007499;28;20207;-75
2021/09/13 05:33:39;;;;;;;12.43;10.80;;;12.70;99.90;;;12.79;75.15;94319.31;4980213;28;20251;-75
2021/09/13 05:36:10;;;;;;;14.90;10.27;;;11.60;99.90;;;12.89;75.12;94325.69;5008764;28;20204;-74
2021/09/13 05:38:36;;;;;;;12.63;10.03;;;12.30;99.90;;;12.91;75.11;94326.22;4987970;28;20523;-74
2021/09/13 05:41:02;;;;;;;11.53;10.43;;;11.90;99.90;;;12.94;75.20;94329.16;4990973;28;20211;-73
2021/09/13 05:43:30;;;;;;;11.67;10.57;;;11.80;99.90;;;13.04;75.53;94325.66;4991707;28;20219;-75
2021/09/13 05:45:56;;;;;;;11.07;9.80;;;11.90;99.90;;;13.15;75.23;94320.09;5010334;28;20247;-75
2021/09/13 05:48:24;;;;;;;12.10;9.07;;;12.50;99.90;;;13.30;75.36;94333.34;4957236;28;20206;-74
2021/09/13 05:50:51;;;;;;;11.03;8.70;;;12.00;99.90;;;13.30;75.51;94330.69;4984588;28;20201;-74
2021/09/13 05:53:17;;;;;;;9.83;8.93;;;12.30;99.90;;;13.31;75.34;94336.81;4976479;28;20193;-74
2021/09/13 05:55:45;;;;;;;11.97;9.03;;;12.20;99.90;;;13.38;75.83;94333.88;4977727;28;20654;-75
2021/09/13 05:58:12;;;;;;;10.87;9.43;;;13.00;99.90;;;13.57;75.80;94330.34;4959251;28;20204;-74
2021/09/13 06:00:38;;;;;;;13.73;9.17;;;12.60;99.90;;;13.68;75.31;94333.78;4991742;28;20212;-74
2021/09/13 06:03:06;;;;;;;12.33;8.93;;;12.60;99.90;;;13.72;75.37;94327.63;4978728;28;20214;-74
2021/09/13 06:05:32;;;;;;;10.10;8.47;;;12.70;99.90;;;13.85;75.61;94327.03;4976720;28;20634;-75
2021/09/13 06:08:00;;;;;;;10.07;9.07;;;12.80;99.90;;;13.91;75.87;94324.34;5005109;28;20259;-74
2021/09/13 06:10:27;;;;;;;9.07;8.27;;;13.50;99.90;;;13.96;75.85;94319.00;4976495;28;20201;-75
2021/09/13 06:12:53;;;;;;;9.20;7.93;;;13.80;99.90;;;14.05;75.76;94333.34;5006811;28;20251;-74
2021/09/13 06:15:19;;;;;;;8.73;7.93;;;13.60;99.90;;;14.12;76.03;94328.50;4995373;28;20205;-75
2021/09/13 06:17:45;;;;;;;8.80;7.80;;;13.40;99.90;;;14.21;75.92;94335.63;4974942;28;20227;-75
2021/09/13 06:20:12;;;;;;;7.93;7.00;;;14.00;99.90;;;14.49;75.80;94336.81;4992666;28;20227;-75
2021/09/13 06:22:39;;;;;;;9.17;8.13;;;;;;;14.70;75.95;94340.94;5001020;28;20197;-75
2021/09/13 06:25:08;;;;;;;9.70;8.77;;;13.60;99.90;;;14.80;75.90;94340.88;5009702;28;20219;-74
2021/09/13 06:27:34;;;;;;;10.77;9.70;;;13.60;99.90;;;14.96;75.88;94346.88;4993319;28;20779;-74
2021/09/13 06:30:05;;;;;;;9.40;8.50;;;14.70;99.90;;;15.08;76.22;94344.59;4980525;28;20578;-71
2021/09/13 06:32:31;;;;;;;9.00;8.20;;;14.40;99.90;;;15.61;76.17;94369.47;4979830;28;20722;-72
2021/09/13 06:34:57;;;;;;;7.77;6.93;;;14.90;99.90;;;17.32;76.01;94408.38;4962823;28;20197;-72
2021/09/13 06:37:23;;;;;;;6.63;6.13;;;15.60;99.90;;;19.12;76.13;94377.38;4978181;28;20197;-71
2021/09/13 06:39:57;;;;;;;6.20;5.23;;;17.70;99.90;;;21.73;76.13;94430.22;5005081;28;20229;-72
2021/09/13 06:42:25;;;;;;;5.23;4.50;;;22.50;99.90;;;24.32;75.91;94420.06;5013590;28;20193;-70
2021/09/13 06:44:56;;;;;;;5.13;4.60;;;22.80;99.90;;;25.71;75.36;94373.47;4985902;28;20229;-74
2021/09/13 06:47:33;;;;;;;7.87;4.73;;;24.80;99.90;;;27.18;74.70;94413.59;5003209;28;20208;-73
2021/09/13 06:50:05;;;;;;;6.67;4.40;;;26.50;99.90;;;29.01;74.32;94427.13;4989991;28;20196;-72
2021/09/13 06:52:33;;;;;;;4.83;4.40;;;29.90;99.90;;;30.39;73.50;94382.34;4945768;28;20232;-73
2021/09/13 06:54:59;;;;;;;5.27;4.70;;;31.00;99.90;;;30.88;72.95;94368.28;4990678;28;20213;-72
2021/09/13 06:57:29;;;;;;;5.67;5.00;;;30.90;99.90;;;30.98;72.74;94342.16;5005611;28;20690;-72
2021/09/13 06:59:57;;;;;;;5.30;4.90;;;31.60;99.90;;;31.06;72.27;94335.53;4971195;28;20202;-72
2021/09/13 07:02:23;;;;;;;5.17;4.67;;;31.90;97.40;;;31.44;71.29;94362.34;5009463;28;20671;-71
2021/09/13 07:04:49;;;;;;;4.90;4.50;;;32.60;95.50;;;32.05;71.06;94332.41;4981641;28;20240;-72
2021/09/13 07:07:14;;;;;;;5.30;4.50;;;33.10;93.50;;;32.77;69.80;94433.69;5005308;28;20304;-73
2021/09/13 07:09:40;;;;;;;4.90;4.30;;;33.80;93.00;;;33.51;69.62;94406.13;4947213;28;20659;-73
2021/09/13 07:12:06;;;;;;;5.47;4.72;;;34.70;91.00;;;34.03;68.89;94354.81;4973484;28;20614;-72
2021/09/13 07:14:32;;;;;;;5.25;4.88;;;35.10;88.80;;;33.35;68.41;94304.03;4969695;28;20284;-73
2021/09/13 07:17:00;;;;;;;5.85;5.35;;;34.90;86.50;;;33.46;67.97;94368.81;5001257;28;20205;-75
2021/09/13 07:19:26;;;;;;;6.13;5.57;;;35.30;86.20;;;34.06;66.99;94419.25;4993619;28;20667;-75
2021/09/13 07:21:52;;;;;;;8.32;7.65;;;36.80;86.80;;;34.94;66.07;94404.94;5007287;28;20197;-74
2021/09/13 07:24:21;;;;;;;8.57;7.88;;;36.50;81.70;;;35.01;65.31;94344.22;4978225;28;20221;-73
2021/09/13 07:26:50;;;;;;;7.93;7.22;;;36.90;79.50;;;35.03;65.16;94394.22;4994542;28;20208;-76
2021/09/13 07:29:16;;;;;;;9.10;8.40;;;37.10;78.20;;;35.08;64.39;94357.94;4979850;28;20204;-73
2021/09/13 07:31:44;;;;;;;8.95;8.15;;;37.10;76.80;;;35.28;63.80;94410.56;4974049;28;20189;-74
2021/09/13 07:34:09;;;;;;;8.68;7.97;;;37.40;76.40;;;35.49;62.86;94363.44;4962812;28;20193;-74
2021/09/13 07:36:35;;;;;;;9.48;8.77;;;37.70;74.40;;;33.94;62.29;94409.50;5009589;28;20431;-75
2021/09/13 07:39:02;;;;;;;7.35;6.65;;;37.60;74.80;;;34.91;62.20;94417.56;4994006;28;20197;-75
2021/09/13 07:41:28;;;;;;;8.23;6.82;;;37.70;74.80;;;34.93;61.70;94362.03;4997839;28;20185;-75
2021/09/13 07:43:54;;;;;;;7.05;6.55;;;37.70;73.50;;;35.59;60.81;94439.00;5010119;28;20189;-74
2021/09/13 07:46:19;;;;;;;8.95;8.02;;;38.20;73.00;;;35.57;60.22;94377.91;4956720;28;20251;-74
2021/09/13 07:48:45;;;;;;;9.32;8.57;;;38.30;71.90;;;35.32;59.87;94370.72;5008067;28;20287;-74
2021/09/13 07:51:11;;;;;;;9.30;8.50;;;38.00;72.20;;;35.16;59.26;94411.03;4992166;28;20209;-74
2021/09/13 07:53:37;;;;;;;10.05;8.13;;;37.70;72.50;;;35.45;58.63;94415.09;5011010;28;20192;-76
2021/09/13 07:56:05;;;;;;;9.13;8.40;;;37.80;72.10;;;36.16;57.97;94415.09;4985241;28;20217;-75
2021/09/13 07:58:31;;;;;;;10.48;9.48;;;38.60;70.90;;;35.33;57.79;94338.38;4995745;28;20597;-76
2021/09/13 08:00:58;;;;;;;10.68;9.88;;;38.30;71.20;;;33.35;57.46;94273.78;4995560;28;20204;-71
2021/09/13 08:03:24;;;;;;;12.02;10.88;;;36.80;72.60;;;31.65;57.54;94342.47;4973616;28;20192;-71
2021/09/13 08:05:50;;;;;;;12.18;11.02;;;35.10;76.80;;;31.64;57.23;94416.88;5009430;28;20681;-71
2021/09/13 08:08:18;;;;;;;12.38;11.38;;;34.30;80.00;;;32.01;57.04;94388.03;4988348;28;20197;-72
2021/09/13 08:10:46;;;;;;;12.80;11.60;;;34.30;80.10;;;32.72;56.23;94398.34;4997677;28;20239;-72
2021/09/13 08:13:12;;;;;;;12.32;11.38;;;34.70;80.00;;;32.44;56.00;94415.56;5008996;28;20205;-76
2021/09/13 08:15:38;;;;;;;12.65;11.65;;;34.50;80.00;;;32.86;55.60;94480.75;4981877;28;20216;-76
2021/09/13 08:18:03;;;;;;;11.68;10.77;;;34.70;80.30;;;34.38;55.41;94475.72;4971104;28;20255;-75
2021/09/13 08:20:29;;;;;;;11.48;10.57;;;35.70;78.20;;;34.98;54.92;94364.34;4961996;28;20244;-75
2021/09/13 08:22:56;;;;;;;11.23;10.43;;;36.80;75.00;;;35.34;54.37;94431.75;4980610;28;20241;-76
2021/09/13 08:25:25;;;;;;;10.30;9.43;;;37.40;73.60;;;36.45;54.07;94410.72;4994469;28;20236;-75
2021/09/13 08:27:53;;;;;;;10.52;9.77;;;38.80;70.90;;;36.28;53.68;94380.59;4966024;28;20197;-75
2021/09/13 08:30:18;;;;;;;10.63;9.82;;;40.50;81.20;;;37.10;52.95;94513.66;4989484;28;20194;-77
2021/09/13 08:32:44;;;;;;;9.85;9.13;;;39.70;68.30;;;37.37;52.65;94366.97;5008873;28;20221;-77
2021/09/13 08:35:15;;;;;;;10.27;9.45;;;40.10;66.10;;;37.50;52.15;94478.63;4989296;28;20205;-75
2021/09/13 08:37:41;;;;;;;9.52;8.75;;;42.30;72.90;;;39.03;51.36;94467.97;4980303;28;20220;-76
2021/09/13 08:40:08;;;;;;;10.13;9.27;;;41.50;64.80;;;39.54;51.39;94410.81;4962766;28;20228;-75
2021/09/13 08:42:47;;;;;;;8.70;8.00;;;42.40;62.00;;;40.22;50.36;94452.97;4999309;28;20664;-76
2021/09/13 08:45:45;;;;;;;9.00;8.30;;;43.40;60.00;;;39.38;50.07;94415.19;4989931;28;20216;-76
2021/09/13 08:53:51;;;;;;;6.30;5.80;;;42.40;59.20;;;39.83;48.27;94394.94;4982698;28;20208;-78
2021/09/13 08:56:17;;;;;;;7.70;7.10;;;42.50;59.20;;;39.99;48.08;94347.66;5009423;28;20193;-77
2021/09/13 08:58:45;;;;;;;6.47;6.00;;;43.00;57.80;;;40.32;47.33;94378.84;4992298;28;20189;-76
2021/09/13 09:01:15;;;;;;;6.78;6.25;;;43.10;56.90;;;40.90;46.67;94485.88;4977536;28;20201;-77
2021/09/13 09:03:47;;;;;;;7.10;6.50;;;43.90;57.40;;;41.78;46.21;94292.00;4988046;28;20198;-76
2021/09/13 09:06:41;;;;;;;6.85;6.35;;;44.70;55.30;;;41.14;45.64;94558.72;4985011;28;20217;-76
2021/09/13 09:09:10;;;;;;;6.50;6.00;;;44.50;56.00;;;40.64;45.25;94470.41;4990850;28;20209;-75
2021/09/13 09:12:02;;;;;;;6.25;5.85;;;44.10;55.80;;;40.15;44.89;94483.75;4989927;28;20435;-75
2021/09/13 09:14:34;;;;;;;6.25;5.78;;;44.70;55.10;;;42.15;44.30;94458.25;4990222;28;20185;-74
2021/09/13 09:17:22;;;;;;;6.03;5.63;;;45.30;54.20;;;43.12;43.52;94512.78;4975660;28;20189;-76
2021/09/13 09:20:05;;;;;;;5.78;5.40;;;46.30;53.60;;;43.06;42.83;94508.25;4930478;29;20212;-75
2021/09/13 09:22:32;;;;;;;6.13;5.53;;;46.30;53.40;;;42.96;42.07;94367.84;4943198;28;20207;-75
2021/09/13 09:24:58;;;;;;;6.18;5.68;;;46.70;52.50;;;43.32;42.08;94414.63;4933130;29;20969;-75
2021/09/13 09:27:26;;;;;;;5.68;5.18;;;47.30;51.90;;;44.57;41.58;94445.09;4924257;29;20206;-76
2021/09/13 09:29:53;;;;;;;5.07;4.72;;;48.30;50.80;;;43.61;40.95;94336.78;4937229;29;20195;-76
2021/09/13 09:32:29;;;;;;;5.20;4.90;;;47.80;50.20;;;43.89;40.92;94502.44;4912072;29;20223;-78
2021/09/13 09:34:55;;;;;;;5.20;4.80;;;48.00;51.10;;;45.12;39.85;94414.91;4897166;29;20272;-78
2021/09/13 09:37:25;;;;;;;5.45;5.00;;;49.10;50.20;;;45.26;39.87;94335.75;4913509;29;20200;-77
2021/09/13 09:39:56;;;;;;;5.78;5.22;;;49.60;49.00;;;45.61;39.19;94340.78;4885143;29;20232;-80
2021/09/13 09:42:37;;;;;;;5.05;4.72;;;50.10;48.10;;;46.31;38.47;94485.69;4900785;29;20248;-79
2021/09/13 09:45:25;;;;;;;4.75;4.43;;;50.60;48.10;;;46.15;38.24;94494.59;4902660;29;20231;-78
2021/09/13 09:48:10;;;;;;;5.15;4.85;;;50.70;47.50;;;45.89;37.54;94460.66;4902301;29;20205;-74
2021/09/13 09:50:37;;;;;;;4.97;4.68;;;50.10;48.20;;;46.33;37.03;94365.38;4892011;29;20216;-74
2021/09/13 09:53:29;;;;;;;5.00;4.70;;;50.60;47.60;;;45.13;37.11;94374.41;4894682;29;20259;-75
2021/09/13 09:56:11;;;;;;;5.10;4.70;;;49.80;47.50;;;44.59;36.46;94411.84;4913002;28;20224;-76
2021/09/13 09:59:03;;;;;;;5.13;4.60;;;49.30;48.10;;;45.48;35.61;94530.81;4950325;28;20205;-76
2021/09/13 10:01:37;;;;;;;4.75;4.45;;;49.70;47.40;;;45.66;35.58;94387.78;4937554;28;20235;-78
2021/09/13 10:04:14;;;;;;;4.30;4.00;;;50.30;53.70;;;45.95;34.92;94448.75;4967544;28;20187;-76
2021/09/13 10:06:51;;;;;;;4.47;4.18;;;50.30;47.60;;;46.14;34.89;94375.22;4968628;28;20201;-77
2021/09/13 10:09:20;;;;;;;4.60;4.30;;;51.00;50.20;;;46.23;34.61;94375.13;4936735;28;20861;-74
2021/09/13 10:11:53;;;;;;;4.03;3.83;;;50.50;46.50;;;46.59;34.26;94359.16;4952810;28;20281;-78
2021/09/13 10:14:26;;;;;;;4.50;4.20;;;50.90;45.70;;;46.74;33.49;94446.94;4940148;28;20187;-77
2021/09/13 10:16:53;;;;;;;4.20;3.90;;;51.10;45.30;;;47.16;32.97;94323.75;4945976;28;20189;-78
2021/09/13 10:19:22;;;;;;;4.68;4.28;;;51.40;45.50;;;46.84;33.00;94334.03;4958045;28;20198;-77
2021/09/13 10:21:55;;;;;;;4.70;4.40;;;51.30;45.80;;;46.61;32.61;94444.41;4953794;28;20195;-77
2021/09/13 10:24:31;;;;;;;3.80;3.50;;;51.20;45.30;;;47.03;32.42;94342.22;4954839;28;21860;-75
2021/09/13 10:27:07;;;;;;;4.22;3.83;;;52.00;44.40;;;46.34;32.00;94352.13;4939255;28;20228;-78
2021/09/13 10:29:34;;;;;;;4.25;4.03;;;51.60;44.50;;;46.24;31.71;94395.56;4940073;28;20213;-78